Time;durP1;ratioP1;P1;durP2;ratioP2;P2;SDS_P1;SDS_P2;PMS_P1;PMS_P2;Temp;Humidity;BMP_temperature;BMP_pressure;BME280_temperature;BME280_humidity;BME280_pressure;Samples;Min_cycle;Max_cycle;Signal;HPM_P1;HPM_P2
2022/04/19 00:01:10;;;;;;;0.00;0.00;;;9.80;99.90;;;;;;5121938;28;20034;-72
2022/04/19 00:03:39;;;;;;;0.00;0.00;;;9.80;99.90;;;;;;5119980;28;20024;-71
2022/04/19 00:06:05;;;;;;;0.00;0.00;;;9.80;99.90;;;;;;5123699;28;20102;-72
2022/04/19 00:08:31;;;;;;;0.00;0.00;;;9.70;99.90;;;;;;5122494;28;20024;-72
2022/04/19 00:10:57;;;;;;;0.00;0.00;;;9.70;99.90;;;;;;5117896;28;20039;-72
2022/04/19 00:13:23;;;;;;;0.00;0.00;;;9.70;99.90;;;;;;5110328;28;20020;-72
2022/04/19 00:15:49;;;;;;;0.00;0.00;;;9.80;99.90;;;;;;5102209;28;20032;-72
2022/04/19 00:18:15;;;;;;;0.00;0.00;;;9.80;99.90;;;;;;5104606;28;20309;-72
2022/04/19 00:20:42;;;;;;;;;;;9.70;99.90;;;;;;5105988;28;20111;-72
2022/04/19 00:23:15;;;;;;;0.00;0.00;;;9.70;99.90;;;;;;5103023;28;19908;-72
2022/04/19 00:25:46;;;;;;;0.00;0.00;;;9.60;99.90;;;;;;5104172;28;20523;-72
2022/04/19 00:28:13;;;;;;;0.00;0.00;;;9.50;99.90;;;;;;5107092;28;20027;-73
2022/04/19 00:30:39;;;;;;;0.00;0.00;;;9.50;99.90;;;;;;5106506;28;20035;-73
2022/04/19 00:33:06;;;;;;;0.00;0.00;;;9.50;99.90;;;;;;5113898;28;20107;-72
2022/04/19 00:35:34;;;;;;;0.00;0.00;;;9.40;99.90;;;;;;5097136;28;20424;-72
2022/04/19 00:37:59;;;;;;;0.00;0.00;;;9.30;99.90;;;;;;5097835;27;20028;-72
2022/04/19 00:40:26;;;;;;;0.00;0.00;;;9.30;99.90;;;;;;5112177;28;20024;-72
2022/04/19 00:42:54;;;;;;;0.00;0.00;;;9.20;99.90;;;;;;5097022;28;20096;-72
2022/04/19 00:45:22;;;;;;;0.00;0.00;;;9.20;99.90;;;;;;5101834;28;20047;-73
2022/04/19 00:47:48;;;;;;;0.00;0.00;;;9.10;99.90;;;;;;5107929;28;20046;-71
2022/04/19 00:50:14;;;;;;;;;;;9.10;99.90;;;;;;5104182;28;20020;-73
2022/04/19 00:52:41;;;;;;;0.00;0.00;;;9.00;99.90;;;;;;5101592;28;19986;-72
2022/04/19 00:55:10;;;;;;;0.00;0.00;;;9.00;99.90;;;;;;5096041;28;20024;-72
2022/04/19 00:57:40;;;;;;;0.00;0.00;;;8.90;99.90;;;;;;5105475;28;20085;-72
2022/04/19 01:00:08;;;;;;;0.00;0.00;;;8.90;99.90;;;;;;5108122;28;20028;-73
2022/04/19 01:02:36;;;;;;;0.00;0.00;;;8.90;99.90;;;;;;5099224;28;20028;-73
2022/04/19 01:05:02;;;;;;;0.00;0.00;;;8.80;99.90;;;;;;5103530;28;20032;-72
2022/04/19 01:07:29;;;;;;;0.00;0.00;;;8.70;99.90;;;;;;5105026;28;20052;-71
2022/04/19 01:09:54;;;;;;;0.00;0.00;;;8.70;99.90;;;;;;5107334;28;20028;-72
2022/04/19 01:15:09;;;;;;;0.00;0.00;;;8.50;99.90;;;;;;5105891;28;20039;-72
2022/04/19 01:17:39;;;;;;;0.00;0.00;;;8.60;99.90;;;;;;5110888;28;20523;-72
2022/04/19 01:20:13;;;;;;;0.00;0.00;;;8.60;99.90;;;;;;5097714;28;20032;-72
2022/04/19 01:22:42;;;;;;;0.00;0.00;;;8.60;99.90;;;;;;5106248;28;20024;-72
2022/04/19 01:25:10;;;;;;;0.00;0.00;;;8.60;99.90;;;;;;5106552;28;20470;-72
2022/04/19 01:27:37;;;;;;;0.00;0.00;;;8.40;99.90;;;;;;5098178;28;20036;-73
2022/04/19 01:30:05;;;;;;;0.00;0.00;;;8.20;99.90;;;;;;5111213;28;20481;-71
2022/04/19 01:32:31;;;;;;;0.00;0.00;;;8.10;99.90;;;;;;5108829;28;20426;-72
2022/04/19 01:35:17;;;;;;;0.00;0.00;;;8.20;99.90;;;;;;5112731;28;20034;-72
2022/04/19 01:37:46;;;;;;;0.00;0.00;;;8.30;99.90;;;;;;5106827;28;20036;-72
2022/04/19 01:40:18;;;;;;;0.00;0.00;;;8.20;99.90;;;;;;5107761;28;20032;-71
2022/04/19 01:42:52;;;;;;;0.00;0.00;;;8.20;99.90;;;;;;5099926;28;20063;-72
2022/04/19 01:45:29;;;;;;;0.00;0.00;;;8.20;99.90;;;;;;5106255;28;20020;-73
2022/04/19 01:47:57;;;;;;;0.00;0.00;;;8.20;99.90;;;;;;5103197;28;20039;-72
2022/04/19 01:50:26;;;;;;;0.00;0.00;;;8.10;99.90;;;;;;5102270;28;20474;-71
2022/04/19 01:52:53;;;;;;;0.00;0.00;;;8.10;99.90;;;;;;5103200;28;20028;-74
2022/04/19 01:55:20;;;;;;;0.00;0.00;;;8.00;99.90;;;;;;5107483;28;20041;-71
2022/04/19 01:57:57;;;;;;;0.00;0.00;;;8.00;99.90;;;;;;5100149;28;20031;-72
2022/04/19 02:00:25;;;;;;;0.00;0.00;;;8.00;99.90;;;;;;5098432;28;20050;-72
2022/04/19 02:02:55;;;;;;;0.00;0.00;;;8.00;99.90;;;;;;5099909;28;20028;-71
2022/04/19 02:05:21;;;;;;;0.00;0.00;;;8.00;99.90;;;;;;5093453;28;20035;-72
2022/04/19 02:07:47;;;;;;;0.00;0.00;;;8.00;99.90;;;;;;5101544;28;20044;-72
2022/04/19 02:10:15;;;;;;;0.00;0.00;;;8.00;99.90;;;;;;5102966;28;20076;-72
2022/04/19 02:12:41;;;;;;;0.00;0.00;;;7.90;99.90;;;;;;5099006;28;20047;-72
2022/04/19 02:15:08;;;;;;;0.00;0.00;;;7.80;99.90;;;;;;5106893;28;20032;-72
2022/04/19 02:17:34;;;;;;;0.00;0.00;;;7.80;99.90;;;;;;5100339;28;20028;-71
2022/04/19 02:20:01;;;;;;;0.00;0.00;;;7.70;99.90;;;;;;5104857;28;20016;-72
2022/04/19 02:22:27;;;;;;;0.00;0.00;;;7.80;99.90;;;;;;5104304;28;20035;-72
2022/04/19 02:24:55;;;;;;;0.00;0.00;;;7.80;99.90;;;;;;5107612;28;20220;-72
2022/04/19 02:27:21;;;;;;;0.00;0.00;;;7.80;99.90;;;;;;5109321;28;20101;-76
2022/04/19 02:29:47;;;;;;;0.00;0.00;;;7.80;99.90;;;;;;5105663;28;20641;-74
2022/04/19 02:32:13;;;;;;;0.00;0.00;;;7.80;99.90;;;;;;5108491;28;20027;-75
2022/04/19 02:34:39;;;;;;;0.00;0.00;;;7.70;99.90;;;;;;5107337;28;20026;-75
2022/04/19 02:37:05;;;;;;;0.00;0.00;;;7.70;99.90;;;;;;5109916;28;20480;-75
2022/04/19 02:39:30;;;;;;;0.00;0.00;;;7.60;99.90;;;;;;5106202;28;20035;-75
2022/04/19 02:41:59;;;;;;;0.00;0.00;;;7.50;99.90;;;;;;5103465;28;20046;-75
2022/04/19 02:44:25;;;;;;;0.00;0.00;;;7.50;99.90;;;;;;5104880;28;20119;-75
2022/04/19 02:46:51;;;;;;;0.00;0.00;;;7.50;99.90;;;;;;5098615;28;20540;-76
2022/04/19 02:49:16;;;;;;;0.00;0.00;;;7.50;99.90;;;;;;5099583;28;20092;-76
2022/04/19 02:51:42;;;;;;;0.00;0.00;;;7.50;99.90;;;;;;5105074;28;20076;-77
2022/04/19 02:54:08;;;;;;;0.00;0.00;;;7.40;99.90;;;;;;5111733;28;20115;-75
2022/04/19 02:56:33;;;;;;;0.00;0.00;;;7.30;99.90;;;;;;5106107;28;20493;-74
2022/04/19 02:59:03;;;;;;;0.00;0.00;;;7.40;99.90;;;;;;5098331;28;20028;-76
2022/04/19 03:01:29;;;;;;;0.00;0.00;;;7.30;99.90;;;;;;5104323;28;20427;-75
2022/04/19 03:03:55;;;;;;;0.00;0.00;;;7.30;99.90;;;;;;5094670;28;20020;-75
2022/04/19 03:06:21;;;;;;;0.00;0.00;;;7.40;99.90;;;;;;5097253;28;20036;-76
2022/04/19 03:08:49;;;;;;;0.00;0.00;;;7.30;99.90;;;;;;5100796;28;20136;-75
2022/04/19 03:11:15;;;;;;;0.00;0.00;;;7.40;99.90;;;;;;5099027;28;20072;-74
2022/04/19 03:13:41;;;;;;;0.00;0.00;;;7.40;99.90;;;;;;5105378;28;20055;-75
2022/04/19 03:16:13;;;;;;;0.00;0.00;;;7.40;99.90;;;;;;5102234;28;20039;-74
2022/04/19 03:18:42;;;;;;;0.00;0.00;;;7.30;99.90;;;;;;5105088;28;20039;-75
2022/04/19 03:21:09;;;;;;;0.00;0.00;;;7.30;99.90;;;;;;5096683;28;20019;-76
2022/04/19 03:29:03;;;;;;;0.00;0.00;;;7.40;99.90;;;;;;5106808;28;20035;-75
2022/04/19 03:31:29;;;;;;;0.00;0.00;;;7.40;99.90;;;;;;5108212;28;20067;-74
2022/04/19 03:33:55;;;;;;;0.00;0.00;;;7.30;99.90;;;;;;5101474;28;20020;-76
2022/04/19 03:36:20;;;;;;;0.00;0.00;;;7.20;99.90;;;;;;5110081;28;20050;-75
2022/04/19 03:38:46;;;;;;;0.00;0.00;;;7.30;99.90;;;;;;5107555;28;20028;-75
2022/04/19 03:41:13;;;;;;;0.00;0.00;;;7.20;99.90;;;;;;5101953;28;20015;-76
2022/04/19 03:43:38;;;;;;;0.00;0.00;;;7.10;99.90;;;;;;5108850;28;20015;-75
2022/04/19 03:46:05;;;;;;;0.03;0.03;;;7.10;99.90;;;;;;5101686;28;20020;-74
2022/04/19 03:48:32;;;;;;;0.00;0.00;;;7.00;99.90;;;;;;5102031;28;20105;-75
2022/04/19 03:50:58;;;;;;;0.00;0.00;;;7.00;99.90;;;;;;5098267;28;20044;-75
2022/04/19 03:53:24;;;;;;;0.00;0.00;;;7.00;99.90;;;;;;5106421;28;20059;-75
2022/04/19 03:55:49;;;;;;;0.00;0.00;;;7.00;99.90;;;;;;5107351;28;20117;-75
2022/04/19 03:58:16;;;;;;;0.00;0.00;;;7.00;99.90;;;;;;5106582;28;20031;-75
2022/04/19 04:00:41;;;;;;;0.00;0.00;;;7.00;99.90;;;;;;5097874;28;20089;-74
2022/04/19 04:03:08;;;;;;;0.00;0.00;;;6.90;99.90;;;;;;5101808;28;20091;-74
2022/04/19 04:05:34;;;;;;;0.00;0.00;;;6.90;99.90;;;;;;5101308;28;20023;-74
2022/04/19 04:08:00;;;;;;;0.00;0.00;;;6.90;99.90;;;;;;5097793;28;20043;-75
2022/04/19 04:10:26;;;;;;;0.00;0.00;;;7.00;99.90;;;;;;5108316;28;20496;-74
2022/04/19 04:12:51;;;;;;;0.00;0.00;;;6.80;99.90;;;;;;5105789;28;20579;-76
2022/04/19 04:15:17;;;;;;;0.00;0.00;;;6.70;99.90;;;;;;5104382;28;20030;-75
2022/04/19 04:17:43;;;;;;;0.00;0.00;;;6.70;99.90;;;;;;5112471;28;20028;-75
2022/04/19 04:20:10;;;;;;;0.00;0.00;;;6.70;99.90;;;;;;5099033;28;20031;-76
2022/04/19 04:22:35;;;;;;;0.00;0.00;;;6.80;99.90;;;;;;5104252;28;20029;-74
2022/04/19 04:25:02;;;;;;;0.00;0.00;;;6.90;99.90;;;;;;5105055;28;20504;-75
2022/04/19 04:27:28;;;;;;;0.00;0.00;;;6.70;99.90;;;;;;5108706;28;20157;-75
2022/04/19 04:29:53;;;;;;;0.00;0.00;;;6.60;99.90;;;;;;5096550;28;20111;-75
2022/04/19 04:32:19;;;;;;;0.00;0.00;;;6.40;99.90;;;;;;5096250;28;20027;-76
2022/04/19 04:34:47;;;;;;;0.00;0.00;;;6.30;99.90;;;;;;5102493;28;20449;-74
2022/04/19 04:37:13;;;;;;;0.00;0.00;;;6.20;99.90;;;;;;5113886;28;20061;-75
2022/04/19 04:39:39;;;;;;;0.00;0.00;;;6.00;99.90;;;;;;5106912;28;20087;-75
2022/04/19 04:42:05;;;;;;;0.00;0.00;;;5.80;99.90;;;;;;5101200;28;20020;-75
2022/04/19 04:44:31;;;;;;;0.00;0.00;;;5.70;99.90;;;;;;5106405;28;20028;-75
2022/04/19 04:49:41;;;;;;;0.00;0.00;;;5.50;99.90;;;;;;5101420;28;20039;-75
2022/04/19 04:52:11;;;;;;;0.00;0.00;;;5.60;99.90;;;;;;5095433;28;20016;-76
2022/04/19 04:54:38;;;;;;;0.00;0.00;;;5.70;99.90;;;;;;5098224;28;20367;-74
2022/04/19 04:57:05;;;;;;;0.00;0.00;;;5.70;99.90;;;;;;5096930;28;20031;-74
2022/04/19 04:59:32;;;;;;;0.00;0.00;;;5.80;99.90;;;;;;5103818;28;20028;-76
2022/04/19 05:01:58;;;;;;;0.00;0.00;;;6.00;99.90;;;;;;5109648;28;20036;-75
2022/04/19 05:04:24;;;;;;;0.00;0.00;;;6.00;99.90;;;;;;5102972;28;20051;-76
2022/04/19 05:06:53;;;;;;;0.00;0.00;;;6.10;99.90;;;;;;5106882;28;20081;-75
2022/04/19 05:09:18;;;;;;;0.00;0.00;;;5.80;99.90;;;;;;5101990;28;20549;-75
2022/04/19 05:11:47;;;;;;;0.05;0.05;;;5.60;99.90;;;;;;5105435;28;20020;-74
2022/04/19 05:14:14;;;;;;;0.00;0.00;;;5.50;99.90;;;;;;5102339;28;20039;-75
2022/04/19 05:16:42;;;;;;;0.00;0.00;;;5.30;99.90;;;;;;5100810;28;20023;-76
2022/04/19 05:19:09;;;;;;;0.00;0.00;;;5.30;99.90;;;;;;5101914;28;20028;-75
2022/04/19 05:21:37;;;;;;;;;;;5.20;99.90;;;;;;5098837;28;20032;-75
2022/04/19 05:24:04;;;;;;;0.00;0.00;;;5.20;99.90;;;;;;5107400;28;19912;-75
2022/04/19 05:26:30;;;;;;;0.00;0.00;;;5.20;99.90;;;;;;5099896;28;20059;-75
2022/04/19 05:28:56;;;;;;;0.00;0.00;;;5.30;99.90;;;;;;5101208;28;20050;-75
2022/04/19 05:31:22;;;;;;;0.00;0.00;;;5.50;99.90;;;;;;5107227;28;20023;-75
2022/04/19 05:33:48;;;;;;;0.08;0.08;;;5.60;99.90;;;;;;5100935;28;20076;-75
2022/04/19 05:36:13;;;;;;;0.00;0.00;;;5.80;99.90;;;;;;5107925;28;20102;-75
2022/04/19 05:38:39;;;;;;;0.00;0.00;;;6.00;99.90;;;;;;5096102;28;20442;-76
2022/04/19 05:41:05;;;;;;;0.00;0.00;;;6.20;99.90;;;;;;5105649;28;20058;-75
2022/04/19 05:43:31;;;;;;;0.00;0.00;;;6.30;99.90;;;;;;5100981;28;20512;-75
2022/04/19 05:45:59;;;;;;;0.00;0.00;;;6.40;99.90;;;;;;5099636;28;20028;-74
2022/04/19 05:48:25;;;;;;;0.00;0.00;;;6.60;99.90;;;;;;5096904;28;20039;-76
2022/04/19 05:50:51;;;;;;;0.10;0.10;;;6.60;99.90;;;;;;5108469;28;20034;-74
2022/04/19 05:53:17;;;;;;;;;;;6.70;99.90;;;;;;5105580;28;20042;-75
2022/04/19 05:55:43;;;;;;;0.00;0.00;;;6.80;99.90;;;;;;5103205;28;20002;-75
2022/04/19 05:58:09;;;;;;;0.00;0.00;;;6.80;99.90;;;;;;5108360;28;20050;-75
2022/04/19 06:00:34;;;;;;;0.00;0.00;;;6.90;99.90;;;;;;5096393;28;20127;-75
2022/04/19 06:05:45;;;;;;;0.00;0.00;;;7.10;99.90;;;;;;5100134;28;20125;-75
2022/04/19 06:08:10;;;;;;;0.00;0.00;;;7.20;99.90;;;;;;5104470;28;20404;-76
2022/04/19 06:10:36;;;;;;;0.00;0.00;;;7.20;99.90;;;;;;5103688;28;20524;-76
2022/04/19 06:13:02;;;;;;;0.00;0.00;;;7.30;99.90;;;;;;5102203;28;20382;-75
2022/04/19 06:15:28;;;;;;;0.00;0.00;;;7.30;99.90;;;;;;5110374;28;20028;-68
2022/04/19 06:17:53;;;;;;;0.00;0.00;;;7.30;99.90;;;;;;5101592;28;20107;-71
2022/04/19 06:20:19;;;;;;;0.00;0.00;;;7.40;99.90;;;;;;5108569;28;20445;-72
2022/04/19 06:22:45;;;;;;;0.00;0.00;;;7.40;99.90;;;;;;5101480;28;20027;-72
2022/04/19 06:25:12;;;;;;;0.00;0.00;;;7.50;99.90;;;;;;5110803;28;20035;-71
2022/04/19 06:27:39;;;;;;;0.00;0.00;;;7.50;99.90;;;;;;5104636;28;20024;-72
2022/04/19 06:30:05;;;;;;;0.00;0.00;;;7.50;99.90;;;;;;5102744;28;20358;-72
2022/04/19 06:32:31;;;;;;;0.00;0.00;;;7.60;99.90;;;;;;5103476;28;20016;-71
2022/04/19 06:34:59;;;;;;;0.00;0.00;;;7.60;99.90;;;;;;5110890;28;20020;-72
2022/04/19 06:37:26;;;;;;;0.00;0.00;;;7.60;99.90;;;;;;5103990;28;20047;-72
2022/04/19 06:39:52;;;;;;;0.00;0.00;;;7.60;99.90;;;;;;5107499;28;20024;-72
2022/04/19 06:42:17;;;;;;;0.00;0.00;;;7.50;99.90;;;;;;5101237;28;20024;-73
2022/04/19 06:44:44;;;;;;;0.00;0.00;;;7.40;99.90;;;;;;5109996;28;20030;-72
2022/04/19 06:47:10;;;;;;;0.00;0.00;;;7.50;99.90;;;;;;5103625;28;20027;-73
2022/04/19 06:49:37;;;;;;;0.00;0.00;;;7.50;99.90;;;;;;5108506;28;20043;-71
2022/04/19 06:52:06;;;;;;;0.00;0.00;;;7.70;99.90;;;;;;5096489;28;20119;-71
2022/04/19 06:54:32;;;;;;;0.00;0.00;;;7.80;99.90;;;;;;5101681;28;20439;-72
2022/04/19 06:56:58;;;;;;;0.00;0.00;;;7.90;99.90;;;;;;5103681;28;20089;-72
2022/04/19 06:59:25;;;;;;;0.00;0.00;;;8.20;99.90;;;;;;5105427;28;20031;-72
2022/04/19 07:01:51;;;;;;;0.00;0.00;;;8.30;99.90;;;;;;5111444;28;20020;-73
2022/04/19 07:04:17;;;;;;;0.00;0.00;;;8.40;99.90;;;;;;5102876;28;20015;-74
2022/04/19 07:06:43;;;;;;;0.00;0.00;;;8.40;99.90;;;;;;5119974;28;20028;-74
2022/04/19 07:09:08;;;;;;;0.00;0.00;;;8.50;99.90;;;;;;5125761;28;20079;-75
2022/04/19 07:11:36;;;;;;;0.00;0.00;;;8.60;99.90;;;;;;5114573;28;20020;-75
2022/04/19 07:14:03;;;;;;;0.00;0.00;;;8.70;99.90;;;;;;5113069;28;20016;-76
2022/04/19 07:16:32;;;;;;;0.00;0.00;;;8.80;99.90;;;;;;5109245;28;20132;-76
2022/04/19 07:18:58;;;;;;;0.00;0.00;;;8.90;99.90;;;;;;5115156;28;20396;-77
2022/04/19 07:26:52;;;;;;;0.00;0.00;;;8.80;99.90;;;;;;5121760;28;20065;-72
2022/04/19 07:29:18;;;;;;;0.00;0.00;;;8.70;99.90;;;;;;5122582;28;20032;-71
2022/04/19 07:31:48;;;;;;;0.00;0.00;;;8.60;99.90;;;;;;5109692;28;20048;-71
2022/04/19 07:34:17;;;;;;;0.00;0.00;;;8.60;99.90;;;;;;5125365;28;20124;-71
2022/04/19 07:36:43;;;;;;;0.00;0.00;;;8.50;99.90;;;;;;5122052;28;20044;-72
2022/04/19 07:39:10;;;;;;;0.00;0.00;;;8.50;99.90;;;;;;5093730;28;20024;-75
2022/04/19 07:41:37;;;;;;;0.00;0.00;;;8.40;99.90;;;;;;5104030;28;20062;-75
2022/04/19 07:44:08;;;;;;;0.00;0.00;;;8.40;99.90;;;;;;5095149;28;20023;-76
2022/04/19 07:46:35;;;;;;;0.00;0.00;;;8.40;99.90;;;;;;5105078;28;20043;-76
2022/04/19 07:49:02;;;;;;;;;;;8.50;99.90;;;;;;5123248;28;20016;-73
2022/04/19 07:51:28;;;;;;;0.00;0.00;;;8.60;99.90;;;;;;5126592;28;19925;-73
2022/04/19 07:53:54;;;;;;;0.00;0.00;;;8.70;99.90;;;;;;5123776;28;20032;-73
2022/04/19 07:56:20;;;;;;;;;;;8.80;99.90;;;;;;5119941;28;20102;-72
2022/04/19 07:58:47;;;;;;;0.00;0.00;;;9.00;99.90;;;;;;5130557;28;19895;-73
2022/04/19 08:01:14;;;;;;;0.00;0.00;;;9.10;99.90;;;;;;5111466;28;20076;-73
2022/04/19 08:03:41;;;;;;;0.00;0.00;;;9.40;99.90;;;;;;5126039;28;20024;-74
2022/04/19 08:06:07;;;;;;;;;;;9.80;99.90;;;;;;5125920;28;20016;-74
2022/04/19 08:08:33;;;;;;;0.00;0.00;;;9.90;99.90;;;;;;5112788;28;19919;-76
2022/04/19 08:10:58;;;;;;;0.00;0.00;;;9.80;99.90;;;;;;5108878;28;20020;-75
2022/04/19 08:13:24;;;;;;;0.00;0.00;;;9.80;99.90;;;;;;5107047;28;20537;-73
2022/04/19 08:15:50;;;;;;;0.00;0.00;;;9.80;99.90;;;;;;5111223;28;20093;-75
2022/04/19 08:18:25;;;;;;;0.00;0.00;;;9.90;99.90;;;;;;5114676;28;20031;-75
2022/04/19 08:20:51;;;;;;;0.00;0.00;;;10.00;99.90;;;;;;5113939;27;20575;-75
2022/04/19 08:23:17;;;;;;;0.00;0.00;;;9.90;99.90;;;;;;5114411;28;20016;-75
2022/04/19 08:25:43;;;;;;;0.00;0.00;;;10.00;99.90;;;;;;5105062;28;20032;-74
2022/04/19 08:28:12;;;;;;;;;;;10.10;99.90;;;;;;5107070;28;20023;-74
2022/04/19 08:30:37;;;;;;;0.00;0.00;;;10.30;99.90;;;;;;5106249;27;19915;-75
2022/04/19 08:33:04;;;;;;;0.00;0.00;;;10.50;99.90;;;;;;5105034;28;20729;-75
2022/04/19 08:35:29;;;;;;;;;;;10.80;99.90;;;;;;5107078;28;20028;-75
2022/04/19 08:37:56;;;;;;;0.00;0.00;;;11.00;99.90;;;;;;5107539;28;20383;-74
2022/04/19 08:40:22;;;;;;;0.00;0.00;;;11.10;99.90;;;;;;5100741;28;20481;-75
2022/04/19 08:42:48;;;;;;;;;;;11.20;99.90;;;;;;5110458;28;20034;-77
2022/04/19 08:45:15;;;;;;;0.00;0.00;;;11.10;99.90;;;;;;5106523;28;20424;-77
2022/04/19 08:47:46;;;;;;;0.00;0.00;;;11.00;99.90;;;;;;5106650;28;20044;-76
2022/04/19 08:50:15;;;;;;;0.00;0.00;;;11.10;99.90;;;;;;5110098;28;20439;-75
2022/04/19 08:52:41;;;;;;;0.00;0.00;;;11.30;99.90;;;;;;5110328;28;20111;-74
2022/04/19 08:57:59;;;;;;;0.00;0.00;;;11.60;99.90;;;;;;5108196;28;20036;-75
2022/04/19 09:00:25;;;;;;;0.00;0.00;;;11.40;99.90;;;;;;5102554;28;20027;-75
2022/04/19 09:02:53;;;;;;;0.00;0.00;;;11.50;99.90;;;;;;5107028;28;20027;-76
2022/04/19 09:05:21;;;;;;;0.00;0.00;;;11.80;99.90;;;;;;5103694;28;20188;-76
2022/04/19 09:07:51;;;;;;;0.00;0.00;;;11.60;99.90;;;;;;5102385;28;20043;-75
2022/04/19 09:10:31;;;;;;;0.00;0.00;;;11.50;99.90;;;;;;5110455;28;20480;-76
2022/04/19 09:12:59;;;;;;;0.00;0.00;;;11.50;99.90;;;;;;5094315;28;20028;-76
2022/04/19 09:15:32;;;;;;;0.00;0.00;;;11.60;99.90;;;;;;5100189;28;20019;-75
2022/04/19 09:18:00;;;;;;;0.00;0.00;;;11.50;99.90;;;;;;5111485;28;20084;-76
2022/04/19 09:20:26;;;;;;;0.00;0.00;;;11.50;99.90;;;;;;5102199;28;20032;-76
2022/04/19 09:23:07;;;;;;;0.00;0.00;;;11.60;99.90;;;;;;5096866;28;20070;-75
2022/04/19 09:25:34;;;;;;;0.00;0.00;;;11.80;99.90;;;;;;5105707;28;20036;-75
2022/04/19 09:28:01;;;;;;;0.00;0.00;;;12.00;99.90;;;;;;5096450;28;20063;-74
2022/04/19 09:30:29;;;;;;;0.00;0.00;;;12.10;99.90;;;;;;5097262;28;20024;-76
2022/04/19 09:33:08;;;;;;;0.00;0.00;;;12.10;99.90;;;;;;5107256;28;20020;-77
2022/04/19 09:35:37;;;;;;;0.00;0.00;;;12.10;99.90;;;;;;5103370;28;20032;-76
2022/04/19 09:38:04;;;;;;;0.00;0.00;;;11.90;99.90;;;;;;5107802;28;20020;-76
2022/04/19 09:40:38;;;;;;;0.00;0.00;;;11.90;99.90;;;;;;5094483;28;20024;-76
2022/04/19 09:43:21;;;;;;;0.00;0.00;;;11.70;99.90;;;;;;5097101;28;20028;-75
2022/04/19 09:45:50;;;;;;;0.00;0.00;;;11.80;99.90;;;;;;5114444;28;20048;-74
2022/04/19 09:48:18;;;;;;;0.00;0.00;;;11.80;99.90;;;;;;5122033;28;20027;-76
2022/04/19 09:50:59;;;;;;;0.00;0.00;;;11.90;99.90;;;;;;5128246;28;20015;-76
2022/04/19 09:53:27;;;;;;;0.00;0.00;;;12.00;99.90;;;;;;5122862;28;20043;-76
2022/04/19 09:55:54;;;;;;;0.00;0.00;;;12.00;99.90;;;;;;5114103;28;20087;-76
2022/04/19 09:58:24;;;;;;;0.00;0.00;;;12.00;99.90;;;;;;5117109;28;20053;-76
2022/04/19 10:00:50;;;;;;;0.00;0.00;;;12.20;99.90;;;;;;5113841;28;20104;-76
2022/04/19 10:08:38;;;;;;;0.00;0.00;;;12.20;99.90;;;;;;5119834;28;20052;-74
2022/04/19 10:11:04;;;;;;;0.00;0.00;;;12.30;99.90;;;;;;5121834;28;20018;-75
2022/04/19 10:13:33;;;;;;;0.00;0.00;;;12.30;99.90;;;;;;5122997;28;20028;-76
2022/04/19 10:16:04;;;;;;;0.00;0.00;;;12.30;99.90;;;;;;5122506;28;20032;-75
2022/04/19 10:18:29;;;;;;;0.00;0.00;;;12.40;99.90;;;;;;5133062;28;20023;-76
2022/04/19 10:21:01;;;;;;;0.00;0.00;;;12.60;99.90;;;;;;5130099;28;20024;-75
2022/04/19 10:23:40;;;;;;;0.00;0.00;;;12.70;99.90;;;;;;5134779;28;20103;-75
2022/04/19 10:26:28;;;;;;;0.00;0.00;;;12.70;99.90;;;;;;5134077;28;20046;-76
2022/04/19 10:28:56;;;;;;;0.00;0.00;;;12.80;99.90;;;;;;5133890;28;20012;-76
2022/04/19 10:31:34;;;;;;;0.00;0.00;;;12.70;99.90;;;;;;5121401;28;20083;-73
2022/04/19 10:34:05;;;;;;;0.00;0.00;;;13.00;99.90;;;;;;5126374;28;20040;-76
2022/04/19 10:36:37;;;;;;;0.00;0.00;;;13.20;99.90;;;;;;5128637;28;20032;-74
2022/04/19 10:39:11;;;;;;;0.00;0.00;;;13.40;99.90;;;;;;5120722;28;20016;-75
2022/04/19 10:41:59;;;;;;;0.00;0.00;;;13.60;99.90;;;;;;5125174;28;20032;-76
2022/04/19 10:44:28;;;;;;;0.00;0.00;;;13.50;99.90;;;;;;5118520;28;20012;-75
2022/04/19 10:47:13;;;;;;;0.00;0.00;;;13.50;99.90;;;;;;5118861;28;20051;-74
2022/04/19 10:49:57;;;;;;;0.00;0.00;;;13.40;99.90;;;;;;5104124;28;20450;-74
2022/04/19 10:52:43;;;;;;;0.00;0.00;;;13.30;99.90;;;;;;5111153;28;20030;-74
2022/04/19 10:55:11;;;;;;;0.00;0.00;;;13.20;99.90;;;;;;5105870;28;20019;-73
2022/04/19 11:00:41;;;;;;;0.00;0.00;;;13.30;99.90;;;;;;5098781;28;20732;-73
2022/04/19 11:03:26;;;;;;;0.00;0.00;;;13.10;99.90;;;;;;5098621;28;20028;-74
2022/04/19 11:05:57;;;;;;;0.00;0.00;;;13.00;99.90;;;;;;5105812;28;20036;-73
2022/04/19 11:08:26;;;;;;;0.00;0.00;;;13.00;99.90;;;;;;5112314;28;20107;-73
2022/04/19 11:10:58;;;;;;;0.00;0.00;;;13.20;99.90;;;;;;5106654;28;20032;-74
2022/04/19 11:13:31;;;;;;;0.00;0.00;;;13.30;99.90;;;;;;5106287;28;20020;-75
2022/04/19 11:16:05;;;;;;;0.00;0.00;;;13.40;99.90;;;;;;5111466;28;20024;-74
2022/04/19 11:18:34;;;;;;;0.00;0.00;;;13.40;99.90;;;;;;5102603;28;20028;-74
2022/04/19 11:21:05;;;;;;;0.00;0.00;;;13.30;99.90;;;;;;5097460;28;20032;-75
2022/04/19 11:23:44;;;;;;;0.00;0.00;;;13.50;99.90;;;;;;5106973;28;20028;-75
2022/04/19 11:26:42;;;;;;;0.00;0.00;;;13.70;99.90;;;;;;5112218;28;20096;-73
2022/04/19 11:29:08;;;;;;;0.00;0.00;;;13.80;99.90;;;;;;5070194;28;20059;-73
2022/04/19 11:31:43;;;;;;;0.00;0.00;;;13.90;99.90;;;;;;5105644;28;20664;-75
2022/04/19 11:34:13;;;;;;;0.00;0.00;;;14.10;99.90;;;;;;5103143;28;20036;-73
2022/04/19 11:36:38;;;;;;;0.00;0.00;;;14.20;99.90;;;;;;5104114;28;20020;-73
2022/04/19 11:39:04;;;;;;;0.00;0.00;;;14.50;99.90;;;;;;5113585;28;20380;-74
2022/04/19 11:46:48;;;;;;;0.00;0.00;;;15.10;99.90;;;;;;5098725;28;20542;-74
2022/04/19 11:49:20;;;;;;;0.00;0.00;;;15.20;99.90;;;;;;5110936;28;20027;-73
2022/04/19 11:51:52;;;;;;;0.00;0.00;;;15.20;99.90;;;;;;5121717;28;20033;-76
2022/04/19 11:54:27;;;;;;;0.00;0.00;;;15.20;99.90;;;;;;5125827;28;20023;-75
2022/04/19 11:57:05;;;;;;;0.00;0.00;;;15.30;99.90;;;;;;5112858;28;20036;-73
2022/04/19 11:59:41;;;;;;;0.00;0.00;;;15.40;99.90;;;;;;5113171;27;20019;-74
2022/04/19 12:02:17;;;;;;;0.00;0.00;;;15.10;99.90;;;;;;5110904;28;20080;-74
2022/04/19 12:04:53;;;;;;;0.00;0.00;;;15.10;99.90;;;;;;5119898;28;20008;-74
2022/04/19 12:07:20;;;;;;;0.00;0.00;;;14.90;99.90;;;;;;5121355;28;20063;-74
2022/04/19 12:09:52;;;;;;;0.00;0.00;;;15.10;99.90;;;;;;5115234;28;20802;-74
2022/04/19 12:12:19;;;;;;;0.00;0.00;;;15.30;99.90;;;;;;5123775;27;20024;-74
2022/04/19 12:14:52;;;;;;;0.00;0.00;;;15.30;99.90;;;;;;5117081;28;20028;-73
2022/04/19 12:17:24;;;;;;;0.00;0.00;;;15.10;99.90;;;;;;5118911;28;20400;-75
2022/04/19 12:20:03;;;;;;;0.00;0.00;;;15.20;99.90;;;;;;5116869;28;20024;-74
2022/04/19 12:22:34;;;;;;;0.00;0.00;;;15.10;99.90;;;;;;5106985;28;20076;-74
2022/04/19 12:25:00;;;;;;;0.00;0.00;;;15.10;99.90;;;;;;5128180;28;20020;-73
2022/04/19 12:27:28;;;;;;;0.00;0.00;;;15.00;99.90;;;;;;5124252;28;20035;-73
2022/04/19 12:29:59;;;;;;;0.00;0.00;;;14.90;99.90;;;;;;5111400;28;20416;-74
2022/04/19 12:32:26;;;;;;;0.00;0.00;;;15.00;99.90;;;;;;5102228;28;20064;-74
2022/04/19 12:35:07;;;;;;;0.00;0.00;;;14.90;99.90;;;;;;5106685;28;20081;-73
2022/04/19 12:37:32;;;;;;;0.00;0.00;;;14.90;99.90;;;;;;5108758;28;20027;-73
2022/04/19 12:40:02;;;;;;;0.00;0.00;;;14.90;99.90;;;;;;5100540;28;20020;-74
2022/04/19 12:42:28;;;;;;;0.00;0.00;;;15.00;99.90;;;;;;5102164;28;20036;-72
2022/04/19 12:45:12;;;;;;;0.00;0.00;;;15.00;99.90;;;;;;5107566;28;20190;-74
2022/04/19 12:47:45;;;;;;;0.00;0.00;;;14.80;99.90;;;;;;5103630;28;20243;-74
2022/04/19 12:50:13;;;;;;;0.00;0.00;;;14.80;99.90;;;;;;5106076;28;20046;-73
2022/04/19 12:52:41;;;;;;;0.00;0.00;;;15.00;99.90;;;;;;5101386;28;20050;-74
2022/04/19 12:55:09;;;;;;;0.00;0.00;;;15.20;99.90;;;;;;5111891;28;20134;-74
2022/04/19 12:57:38;;;;;;;0.00;0.00;;;15.30;99.30;;;;;;5109460;28;20030;-75
2022/04/19 13:00:09;;;;;;;0.00;0.00;;;15.20;99.70;;;;;;5103476;28;20024;-74
2022/04/19 13:02:43;;;;;;;0.00;0.00;;;15.30;99.30;;;;;;5098086;28;20770;-74
2022/04/19 13:05:08;;;;;;;0.00;0.00;;;15.40;99.30;;;;;;5097842;28;20098;-73
2022/04/19 13:13:05;;;;;;;0.00;0.00;;;15.70;98.60;;;;;;5109390;28;20080;-75
2022/04/19 13:15:33;;;;;;;0.00;0.00;;;15.60;98.50;;;;;;5110167;28;20040;-74
2022/04/19 13:17:59;;;;;;;0.00;0.00;;;15.60;98.10;;;;;;5105065;28;20625;-73
2022/04/19 13:20:25;;;;;;;0.00;0.00;;;15.70;98.50;;;;;;5106416;28;20023;-75
2022/04/19 13:22:50;;;;;;;0.00;0.00;;;15.70;98.00;;;;;;5105734;28;20357;-75
2022/04/19 13:25:20;;;;;;;0.00;0.00;;;15.70;97.90;;;;;;5112274;28;20020;-75
2022/04/19 13:27:46;;;;;;;0.00;0.00;;;15.90;98.50;;;;;;5108370;28;20020;-74
2022/04/19 13:30:19;;;;;;;0.00;0.00;;;16.10;97.50;;;;;;5105632;28;20024;-74
2022/04/19 13:32:46;;;;;;;0.00;0.00;;;16.00;97.50;;;;;;5087607;28;20040;-74
2022/04/19 13:35:12;;;;;;;0.00;0.00;;;15.90;97.80;;;;;;5107688;28;20030;-74
2022/04/19 13:40:25;;;;;;;;;;;15.90;97.90;;;;;;5100737;28;20050;-74
2022/04/19 13:42:55;;;;;;;0.00;0.00;;;15.90;98.10;;;;;;5104523;28;19907;-74
2022/04/19 13:45:21;;;;;;;0.00;0.00;;;15.70;98.20;;;;;;5100105;28;20367;-75